Terminal Aerodrome Forecast
Issued by NWS Blacksburg, VA

Current Version | Previous Version | Graphics & Text | Print | Product List | Glossary On
Versions: 1 2 3 4 5 6 7 8 9 10 11 12 13 14 15 16 17 18 19 20 21 22 23 24 25 26 27 28 29 30 31 32 33
000
FTUS41 KRNK 210540
TAFBLF
TAF
KBLF 210540Z 2106/2206 27003KT 6SM BR SCT002 BKN250
      TEMPO 2109/2112 1SM BR OVC002
     FM211500 29007KT P6SM SCT020 OVC250
     FM212100 27004KT P6SM VCTS SCT050CB BKN250=

USA.gov is the U.S. government's official web portal to all federal, state and local government web resources and services.